Time;durP1;ratioP1;P1;durP2;ratioP2;P2;SDS_P1;SDS_P2;PMS_P1;PMS_P2;Temp;Humidity;BMP_temperature;BMP_pressure;BME280_temperature;BME280_humidity;BME280_pressure;Samples;Min_cycle;Max_cycle;Signal;HPM_P1;HPM_P2
2021/06/05 00:00:46;;;;;;;5.87;2.45;;;;;;;16.44;54.29;100905.02;1755731;81;21174;-61
2021/06/05 00:03:20;;;;;;;5.00;2.75;;;;;;;16.35;54.11;100896.86;1808827;77;22202;-61
2021/06/05 00:05:58;;;;;;;5.87;3.30;;;;;;;16.28;54.24;100897.94;1826863;77;22175;-61
2021/06/05 00:08:33;;;;;;;5.47;2.95;;;;;;;16.24;54.30;100892.30;1818457;77;22242;-61
2021/06/05 00:11:07;;;;;;;3.52;2.50;;;;;;;16.23;54.37;100894.53;1820280;77;22166;-61
2021/06/05 00:13:43;;;;;;;3.08;2.25;;;;;;;16.21;54.33;100891.05;1832930;77;22217;-61
2021/06/05 00:16:23;;;;;;;4.47;2.83;;;;;;;16.18;54.44;100896.45;1817466;77;22143;-54
2021/06/05 00:19:04;;;;;;;5.58;3.40;;;;;;;16.14;54.52;100898.77;1792994;77;28186;-54
2021/06/05 00:21:37;;;;;;;6.10;3.50;;;;;;;16.13;54.37;100895.25;1795485;77;22597;-54
2021/06/05 00:24:10;;;;;;;4.45;2.90;;;;;;;16.07;54.44;100889.25;1828249;77;22233;-54
2021/06/05 00:26:45;;;;;;;4.70;2.60;;;;;;;16.05;54.67;100894.59;1811045;77;22195;-54
2021/06/05 00:29:18;;;;;;;3.55;2.47;;;;;;;16.03;54.78;100894.64;1803230;77;22190;-54
2021/06/05 00:31:51;;;;;;;5.30;2.67;;;;;;;15.99;54.72;100891.66;1820694;77;22633;-54
2021/06/05 00:34:24;;;;;;;5.40;2.72;;;;;;;15.90;54.85;100894.07;1820468;77;22218;-54
2021/06/05 00:36:58;;;;;;;4.60;2.55;;;;;;;15.85;54.96;100888.45;1823399;77;22589;-54
2021/06/05 00:39:31;;;;;;;4.17;2.50;;;;;;;15.79;55.07;100893.91;1794853;77;22240;-54
2021/06/05 00:42:06;;;;;;;5.90;2.77;;;;;;;15.71;55.01;100888.81;1820589;77;22210;-54
2021/06/05 00:44:39;;;;;;;5.05;2.80;;;;;;;15.65;55.12;100886.31;1787915;77;22240;-54
2021/06/05 00:47:18;;;;;;;5.42;2.75;;;;;;;15.61;55.21;100882.88;1821314;77;22216;-54
2021/06/05 00:49:53;;;;;;;8.03;2.85;;;;;;;15.58;55.20;100886.45;1834413;77;22840;-54
2021/06/05 00:52:26;;;;;;;3.42;2.25;;;;;;;15.55;55.24;100882.55;1833608;77;22209;-54
2021/06/05 00:54:59;;;;;;;4.87;2.58;;;;;;;15.54;55.49;100886.59;1852905;77;22179;-54
2021/06/05 00:57:32;;;;;;;4.70;2.83;;;;;;;15.52;55.41;100887.08;1812657;77;22194;-54
2021/06/05 01:00:20;;;;;;;5.17;2.60;;;;;;;15.48;55.45;100888.06;1828618;77;22189;-54
2021/06/05 01:03:01;;;;;;;4.40;2.80;;;;;;;15.43;55.55;100891.69;1829635;77;22202;-54
2021/06/05 01:05:36;;;;;;;5.47;2.55;;;;;;;15.35;55.74;100889.67;1821624;77;22167;-53
2021/06/05 01:08:57;;;;;;;4.05;2.70;;;;;;;15.27;55.68;100893.84;1813335;77;22277;-55
2021/06/05 01:11:48;;;;;;;3.80;2.62;;;;;;;15.23;55.81;100884.69;1835889;77;22169;-54
2021/06/05 01:14:48;;;;;;;5.72;2.83;;;;;;;15.15;56.04;100888.39;1785270;77;22664;-54
2021/06/05 01:17:37;;;;;;;4.72;2.72;;;;;;;15.12;56.23;100886.23;1834849;77;22715;-53
2021/06/05 01:20:38;;;;;;;4.20;2.77;;;;;;;15.06;56.29;100889.03;1764079;80;21119;-54
2021/06/05 01:23:45;;;;;;;5.55;3.12;;;;;;;15.07;56.46;100882.81;1821315;77;22677;-54
2021/06/05 01:26:41;;;;;;;4.12;2.50;;;;;;;15.03;56.50;100880.70;1826484;77;22281;-54
2021/06/05 01:29:28;;;;;;;5.10;2.70;;;;;;;14.99;56.55;100879.91;1799309;77;20160;-54
2021/06/05 01:32:05;;;;;;;8.58;3.20;;;;;;;14.95;56.38;100876.91;1817801;77;22151;-54
2021/06/05 01:34:47;;;;;;;4.83;2.72;;;;;;;14.89;56.53;100879.70;1792822;77;22243;-54
2021/06/05 01:37:21;;;;;;;5.20;3.08;;;;;;;14.86;56.65;100875.32;1819773;77;22171;-54
2021/06/05 01:39:54;;;;;;;4.50;2.80;;;;;;;14.85;56.74;100878.02;1827541;77;22147;-54
2021/06/05 01:42:29;;;;;;;5.47;2.98;;;;;;;14.82;56.81;100877.61;1830714;77;22174;-54
2021/06/05 01:45:06;;;;;;;6.25;3.60;;;;;;;14.80;56.90;100882.08;1817389;77;28013;-54
2021/06/05 01:47:40;;;;;;;4.42;2.80;;;;;;;15.06;56.12;100884.61;1823832;77;22179;-54
2021/06/05 01:50:15;;;;;;;5.40;2.90;;;;;;;15.12;55.70;100888.45;1828625;77;22214;-54
2021/06/05 01:52:49;;;;;;;6.92;3.75;;;;;;;15.09;55.55;100880.56;1801964;77;28495;-54
2021/06/05 01:55:30;;;;;;;9.18;3.10;;;;;;;15.09;55.59;100877.92;1831276;77;22199;-54
2021/06/05 01:58:12;;;;;;;5.92;3.00;;;;;;;15.12;55.56;100875.20;1824167;77;22210;-54
2021/06/05 02:00:48;;;;;;;5.92;2.83;;;;;;;15.13;55.62;100880.03;1817142;77;22198;-54
2021/06/05 02:03:35;;;;;;;6.92;3.50;;;;;;;15.08;55.69;100881.91;1761175;81;21135;-54
2021/06/05 02:06:09;;;;;;;4.80;3.20;;;;;;;15.03;55.95;100874.08;1833785;77;22180;-54
2021/06/05 02:08:42;;;;;;;5.33;3.00;;;;;;;15.01;56.00;100875.89;1817561;77;22197;-54
2021/06/05 02:11:18;;;;;;;12.65;3.20;;;;;;;14.99;56.16;100881.67;1821340;77;22539;-54
2021/06/05 02:14:05;;;;;;;6.87;4.05;;;;;;;14.98;56.20;100879.50;1798792;77;28087;-51
2021/06/05 02:16:43;;;;;;;8.38;3.50;;;;;;;15.05;56.40;100880.22;1823261;77;22140;-53
2021/06/05 02:19:21;;;;;;;7.62;3.50;;;;;;;15.16;56.04;100876.88;1802423;77;22610;-52
2021/06/05 02:21:57;;;;;;;5.15;3.22;;;;;;;15.16;55.92;100878.63;1834493;77;22549;-53
2021/06/05 02:24:34;;;;;;;6.45;3.83;;;;;;;15.17;55.97;100880.38;1789500;77;28069;-53
2021/06/05 02:27:07;;;;;;;4.45;2.98;;;;;;;15.16;55.96;100878.20;1831114;77;22594;-53
2021/06/05 02:29:47;;;;;;;7.00;3.00;;;;;;;15.19;55.96;100881.69;1819536;77;22665;-54
2021/06/05 02:32:24;;;;;;;5.80;2.95;;;;;;;15.19;55.90;100878.56;1834501;77;22638;-54
2021/06/05 02:34:58;;;;;;;4.90;3.05;;;;;;;15.20;55.88;100880.78;1804622;77;22163;-53
2021/06/05 02:37:31;;;;;;;4.45;2.47;;;;;;;15.17;55.88;100884.36;1834337;77;22147;-53
2021/06/05 02:40:11;;;;;;;4.53;2.92;;;;;;;15.14;55.62;100889.30;1834505;77;22667;-53
2021/06/05 02:42:44;;;;;;;3.90;2.42;;;;;;;15.09;55.64;100886.31;1829102;77;22286;-53
2021/06/05 02:45:28;;;;;;;5.65;3.17;;;;;;;15.05;55.78;100884.19;1840597;77;22162;-53
2021/06/05 02:48:21;;;;;;;4.97;2.87;;;;;;;15.06;55.94;100881.07;1828816;77;22296;-53
2021/06/05 02:50:55;;;;;;;4.22;2.70;;;;;;;15.08;55.88;100880.59;1834486;77;22183;-53
2021/06/05 02:53:28;;;;;;;4.40;2.55;;;;;;;15.12;55.94;100879.61;1819408;77;22711;-53
2021/06/05 02:56:01;;;;;;;5.97;2.65;;;;;;;15.11;55.88;100881.41;1812134;77;22195;-53
2021/06/05 02:58:35;;;;;;;5.17;2.50;;;;;;;15.10;55.96;100884.96;1836413;77;22193;-53
2021/06/05 03:01:09;;;;;;;7.58;3.42;;;;;;;15.09;56.05;100883.22;1830506;77;22144;-54
2021/06/05 03:03:43;;;;;;;7.25;3.35;;;;;;;15.08;56.09;100885.89;1834926;77;22175;-53
2021/06/05 03:06:16;;;;;;;5.42;2.92;;;;;;;15.10;56.07;100880.09;1820192;77;22187;-53
2021/06/05 03:09:05;;;;;;;7.12;3.15;;;;;;;15.10;55.96;100883.64;1783035;80;21179;-55
2021/06/05 03:11:38;;;;;;;8.25;3.95;;;;;;;15.10;56.16;100878.34;1841504;77;28482;-53
2021/06/05 03:14:12;;;;;;;5.67;2.98;;;;;;;15.17;56.14;100880.38;1790669;77;22201;-53
2021/06/05 03:16:46;;;;;;;4.87;3.02;;;;;;;15.19;56.24;100877.71;1852786;77;22595;-53
2021/06/05 03:19:19;;;;;;;5.95;2.50;;;;;;;15.25;56.21;100878.42;1807632;77;22198;-53
2021/06/05 03:21:53;;;;;;;4.80;2.90;;;;;;;15.23;56.38;100878.05;1829814;77;22183;-53
2021/06/05 03:24:26;;;;;;;8.00;3.17;;;;;;;15.23;56.46;100879.38;1782244;77;22205;-53
2021/06/05 03:27:00;;;;;;;5.75;3.05;;;;;;;15.23;56.62;100883.36;1834509;77;22203;-53
2021/06/05 03:29:34;;;;;;;7.72;3.30;;;;;;;15.23;56.80;100880.23;1795606;77;22671;-53
2021/06/05 03:32:08;;;;;;;4.30;2.60;;;;;;;15.29;56.97;100887.16;1832030;77;22194;-63
2021/06/05 03:34:41;;;;;;;5.95;2.87;;;;;;;15.42;56.79;100888.63;1821042;77;22225;-64
2021/06/05 03:37:15;;;;;;;6.10;3.17;;;;;;;15.52;56.99;100875.99;1831689;77;22143;-63
2021/06/05 03:39:48;;;;;;;8.68;3.33;;;;;;;15.66;57.02;100877.44;1819085;77;22652;-63
2021/06/05 03:42:22;;;;;;;4.00;2.87;;;;;;;15.78;57.04;100878.89;1808148;77;22562;-63
2021/06/05 03:44:56;;;;;;;3.85;2.75;;;;;;;15.86;57.03;100879.57;1834456;77;22203;-62
2021/06/05 03:47:29;;;;;;;5.03;2.72;;;;;;;15.95;56.94;100879.80;1810979;77;22163;-64
2021/06/05 03:50:05;;;;;;;7.85;3.50;;;;;;;15.98;56.85;100877.96;1836540;77;22197;-65
2021/06/05 03:52:38;;;;;;;9.30;3.22;;;;;;;16.06;57.03;100873.76;1831156;77;20155;-65
2021/06/05 03:55:12;;;;;;;5.47;2.52;;;;;;;16.07;57.63;100883.94;1832627;77;22162;-64
2021/06/05 03:57:45;;;;;;;6.50;3.87;;;;;;;16.19;57.80;100875.61;1847851;77;22233;-65
2021/06/05 04:00:24;;;;;;;7.75;3.50;;;;;;;16.31;57.96;100871.30;1827887;77;22205;-65
2021/06/05 04:02:57;;;;;;;6.72;3.00;;;;;;;16.54;57.91;100870.22;1812542;77;22677;-65
2021/06/05 04:05:31;;;;;;;5.72;3.52;;;;;;;16.65;58.29;100868.12;1833709;77;22131;-65
2021/06/05 04:08:06;;;;;;;4.95;3.25;;;;;;;16.79;58.69;100867.70;1836810;77;22249;-65
2021/06/05 04:10:40;;;;;;;6.35;3.27;;;;;;;17.05;58.46;100864.27;1826805;77;22191;-66
2021/06/05 04:13:15;;;;;;;4.83;3.35;;;;;;;17.25;58.27;100862.73;1817467;77;22199;-66
2021/06/05 04:15:48;;;;;;;5.47;3.00;;;;;;;17.45;58.20;100851.91;1819516;77;22591;-66
2021/06/05 04:18:38;;;;;;;6.65;3.42;;;;;;;17.60;57.79;100866.05;1775852;80;21168;-66
2021/06/05 04:21:14;;;;;;;6.50;3.80;;;;;;;17.94;57.75;100858.66;1819171;77;38357;-65
2021/06/05 04:23:47;;;;;;;4.05;2.92;;;;;;;18.19;57.80;100860.48;1800918;77;22208;-66
2021/06/05 04:26:21;;;;;;;5.22;2.80;;;;;;;18.45;57.32;100858.64;1818977;77;22179;-66
2021/06/05 04:28:54;;;;;;;4.47;2.62;;;;;;;18.65;57.14;100859.20;1817705;77;22175;-66
2021/06/05 04:31:27;;;;;;;4.45;2.98;;;;;;;18.84;56.99;100857.58;1820208;77;22603;-65
2021/06/05 04:34:01;;;;;;;6.35;3.08;;;;;;;19.04;56.53;100858.60;1813726;77;22203;-66
2021/06/05 04:36:34;;;;;;;4.87;2.72;;;;;;;19.20;56.09;100851.32;1818881;77;22183;-65
2021/06/05 04:39:07;;;;;;;6.45;3.20;;;;;;;19.33;55.86;100853.89;1791128;77;22215;-65
2021/06/05 04:41:40;;;;;;;7.58;3.05;;;;;;;19.49;55.61;100850.56;1817182;77;22222;-65
2021/06/05 04:44:14;;;;;;;7.35;3.45;;;;;;;19.66;55.74;100849.39;1814332;77;22225;-66
2021/06/05 04:46:53;;;;;;;5.20;2.98;;;;;;;19.86;55.29;100857.87;1816414;77;22175;-65
2021/06/05 04:49:26;;;;;;;4.20;2.85;;;;;;;20.05;54.99;100853.10;1789237;78;22193;-65
2021/06/05 04:52:12;;;;;;;3.70;2.60;;;;;;;20.21;54.79;100854.13;1758084;81;21150;-66
2021/06/05 04:54:45;;;;;;;6.05;2.52;;;;;;;20.54;54.48;100844.64;1806591;77;22179;-53
2021/06/05 04:57:19;;;;;;;6.20;2.83;;;;;;;20.75;54.10;100844.58;1822516;77;22193;-53
2021/06/05 05:00:09;;;;;;;4.37;2.67;;;;;;;20.96;53.63;100838.70;1810594;78;21158;-54
2021/06/05 05:02:42;;;;;;;5.75;2.85;;;;;;;21.28;52.94;100843.37;1845458;77;22123;-53
2021/06/05 05:05:15;;;;;;;5.62;2.50;;;;;;;21.54;52.19;100842.06;1852797;77;22602;-53
2021/06/05 05:07:49;;;;;;;4.70;2.62;;;;;;;21.82;51.35;100854.09;1828021;77;22238;-54
2021/06/05 05:10:27;;;;;;;5.40;3.60;;;;;;;22.02;49.66;100853.49;1834445;77;22200;-53
2021/06/05 05:13:17;;;;;;;7.70;2.77;;;;;;;22.15;49.56;100858.60;1734113;81;21146;-55
2021/06/05 05:15:50;;;;;;;4.35;2.62;;;;;;;22.35;48.64;100846.80;1852665;77;22230;-53
2021/06/05 05:18:24;;;;;;;4.75;2.58;;;;;;;22.41;46.46;100846.47;1804291;77;22298;-54
2021/06/05 05:20:57;;;;;;;6.20;2.50;;;;;;;22.50;46.82;100844.27;1827601;77;22167;-53
2021/06/05 05:23:33;;;;;;;5.22;2.72;;;;;;;22.56;47.02;100841.22;1837309;77;22198;-54
2021/06/05 05:26:08;;;;;;;4.58;2.67;;;;;;;22.66;47.07;100842.94;1827871;77;22191;-53
2021/06/05 05:28:41;;;;;;;6.00;2.47;;;;;;;22.69;47.16;100851.67;1817030;77;22242;-54
2021/06/05 05:31:16;;;;;;;4.37;2.58;;;;;;;22.91;46.53;100846.45;1839576;77;22179;-54
2021/06/05 05:33:49;;;;;;;5.10;2.25;;;;;;;23.05;46.50;100850.14;1821185;77;22630;-54
2021/06/05 05:36:30;;;;;;;3.87;2.62;;;;;;;23.16;45.76;100847.71;1817546;77;22194;-54
2021/06/05 05:39:17;;;;;;;4.00;2.65;;;;;;;23.22;45.16;100854.11;1756982;80;21166;-55
2021/06/05 05:41:50;;;;;;;6.50;3.05;;;;;;;23.36;44.94;100856.47;1819433;77;22629;-54
2021/06/05 05:44:23;;;;;;;5.45;2.45;;;;;;;23.43;45.06;100853.78;1792504;77;22214;-54
2021/06/05 05:46:57;;;;;;;5.87;2.80;;;;;;;23.54;44.72;100848.64;1819852;77;22209;-54
2021/06/05 05:49:30;;;;;;;3.72;2.12;;;;;;;23.69;44.24;100844.67;1790761;77;22198;-54
2021/06/05 05:52:04;;;;;;;4.83;2.62;;;;;;;23.80;43.71;100841.32;1825097;77;22198;-54
2021/06/05 05:54:38;;;;;;;3.47;2.20;;;;;;;23.95;43.75;100840.86;1799975;77;22226;-54
2021/06/05 05:57:11;;;;;;;4.10;2.10;;;;;;;24.10;43.63;100840.42;1817459;77;22248;-54
2021/06/05 05:59:44;;;;;;;4.62;2.60;;;;;;;24.22;43.23;100839.66;1811745;77;22247;-54
2021/06/05 06:02:17;;;;;;;5.22;2.52;;;;;;;24.30;42.75;100828.41;1831208;77;22212;-54
2021/06/05 06:04:51;;;;;;;6.08;2.50;;;;;;;24.40;42.84;100838.13;1811170;77;22206;-54
2021/06/05 06:07:24;;;;;;;4.28;2.55;;;;;;;24.44;43.19;100833.79;1826689;77;22192;-54
2021/06/05 06:09:57;;;;;;;4.50;2.50;;;;;;;24.01;44.40;100831.98;1822423;77;22621;-54
2021/06/05 06:12:30;;;;;;;3.90;2.12;;;;;;;23.69;45.71;100832.58;1829732;77;22701;-54
2021/06/05 06:15:09;;;;;;;6.17;2.60;;;;;;;23.69;45.68;100835.27;1826224;77;22144;-54
2021/06/05 06:17:57;;;;;;;6.25;2.55;;;;;;;23.69;45.05;100833.42;1783132;80;21247;-54
2021/06/05 06:20:40;;;;;;;4.30;2.60;;;;;;;23.75;45.58;100837.58;1834421;77;22595;-54
2021/06/05 06:23:14;;;;;;;6.78;2.92;;;;;;;23.76;46.44;100837.97;1813541;77;22214;-54
2021/06/05 06:25:50;;;;;;;5.17;3.20;;;;;;;23.83;46.91;100832.61;1808348;77;27999;-54
2021/06/05 06:28:28;;;;;;;5.03;2.98;;;;;;;23.89;47.35;100826.83;1805722;77;28081;-54
2021/06/05 06:31:17;;;;;;;5.08;3.25;;;;;;;23.88;47.92;100835.86;1760702;80;22587;-55
2021/06/05 06:33:50;;;;;;;7.10;3.60;;;;;;;23.85;48.63;100829.32;1793895;77;28088;-54
2021/06/05 06:36:24;;;;;;;23.62;3.70;;;;;;;23.83;48.92;100835.30;1834473;77;22203;-53
2021/06/05 06:38:57;;;;;;;5.80;2.52;;;;;;;23.87;48.94;100838.16;1813440;77;22218;-54
2021/06/05 06:41:31;;;;;;;3.67;2.50;;;;;;;23.85;48.70;100829.32;1829425;77;22191;-54
2021/06/05 06:44:06;;;;;;;9.10;2.80;;;;;;;23.87;48.40;100832.78;1796644;77;22216;-54
2021/06/05 06:46:47;;;;;;;6.20;2.55;;;;;;;24.55;47.01;100829.06;1834577;77;22203;-54
2021/06/05 06:49:21;;;;;;;5.72;2.85;;;;;;;24.01;47.31;100820.35;1801365;77;22201;-54
2021/06/05 06:51:55;;;;;;;4.70;2.60;;;;;;;24.64;44.39;100827.63;1815851;77;22147;-54
2021/06/05 06:54:29;;;;;;;4.40;2.20;;;;;;;24.79;44.53;100825.30;1793510;77;22206;-54
2021/06/05 06:57:04;;;;;;;4.40;2.65;;;;;;;24.90;44.63;100821.04;1820096;77;22205;-54
2021/06/05 06:59:38;;;;;;;4.78;2.83;;;;;;;25.07;44.05;100814.53;1821679;77;22233;-54
2021/06/05 07:02:24;;;;;;;4.65;2.00;;;;;;;25.18;43.47;100813.80;1777026;79;21142;-55
2021/06/05 07:04:57;;;;;;;3.52;2.20;;;;;;;25.39;42.33;100811.02;1833611;77;22618;-54
2021/06/05 07:07:31;;;;;;;4.15;2.50;;;;;;;25.47;40.98;100809.67;1831658;77;22195;-67
2021/06/05 07:10:07;;;;;;;3.70;2.35;;;;;;;25.59;41.58;100810.18;1830851;77;22183;-66
2021/06/05 07:12:41;;;;;;;5.20;2.70;;;;;;;25.81;41.04;100818.11;1830493;77;22619;-66
2021/06/05 07:15:28;;;;;;;3.55;2.40;;;;;;;25.91;39.71;100815.63;1740788;80;21293;-67
2021/06/05 07:18:02;;;;;;;5.40;2.80;;;;;;;25.95;39.25;100809.05;1806516;77;22604;-66
2021/06/05 07:20:36;;;;;;;5.95;2.80;;;;;;;26.02;39.04;100804.95;1830628;77;22187;-65
2021/06/05 07:23:10;;;;;;;6.03;2.75;;;;;;;26.11;39.00;100799.37;1817283;77;22669;-66
2021/06/05 07:25:44;;;;;;;3.40;2.20;;;;;;;26.24;39.35;100799.41;1826989;77;22187;-64
2021/06/05 07:28:26;;;;;;;8.25;2.50;;;;;;;26.45;39.09;100802.86;1822277;77;22755;-66
2021/06/05 07:31:01;;;;;;;8.08;3.12;;;;;;;26.69;39.76;100798.84;1851720;77;22147;-65
2021/06/05 07:33:35;;;;;;;6.33;2.92;;;;;;;27.07;40.17;100800.55;1802792;77;28119;-64
2021/06/05 07:36:08;;;;;;;7.40;3.17;;;;;;;27.50;40.68;100797.80;1825229;77;22187;-64
2021/06/05 07:38:42;;;;;;;4.92;3.00;;;;;;;27.93;40.38;100789.48;1834748;77;22197;-65
2021/06/05 07:41:29;;;;;;;6.97;2.60;;;;;;;28.18;40.27;100799.75;1792676;80;21151;-65
2021/06/05 07:44:04;;;;;;;4.30;2.60;;;;;;;28.47;39.54;100797.39;1812071;77;22222;-63
2021/06/05 07:46:43;;;;;;;4.25;2.33;;;;;;;28.73;38.54;100794.84;1834478;77;22220;-64
2021/06/05 07:49:17;;;;;;;4.70;2.22;;;;;;;29.11;38.64;100788.59;1826690;77;22225;-65
2021/06/05 07:52:07;;;;;;;4.83;2.30;;;;;;;29.37;37.96;100788.61;1792653;80;21343;-65
2021/06/05 07:54:41;;;;;;;3.75;1.98;;;;;;;29.70;37.48;100783.11;1819898;77;22217;-65
2021/06/05 07:57:14;;;;;;;5.25;2.30;;;;;;;29.88;36.53;100775.20;1834508;77;22160;-64
2021/06/05 07:59:47;;;;;;;4.67;2.40;;;;;;;30.09;36.60;100772.98;1819679;77;22245;-66
2021/06/05 08:02:35;;;;;;;4.58;2.25;;;;;;;30.29;35.57;100778.46;1782483;80;21110;-67
2021/06/05 08:05:10;;;;;;;3.15;2.00;;;;;;;30.35;36.12;100767.05;1834391;77;22676;-63
2021/06/05 08:08:04;;;;;;;5.08;2.20;;;;;;;30.62;36.33;100768.30;1824534;77;22258;-65
2021/06/05 08:10:39;;;;;;;4.72;1.82;;;;;;;31.09;36.36;100756.73;1841698;77;22199;-63
2021/06/05 08:13:13;;;;;;;3.67;2.12;;;;;;;31.65;35.43;100752.35;1819625;77;22222;-64
2021/06/05 08:15:48;;;;;;;4.72;2.05;;;;;;;31.96;33.45;100754.87;1834351;77;22168;-65
2021/06/05 08:18:35;;;;;;;3.40;1.80;;;;;;;32.25;33.45;100758.42;1726842;82;21165;-65
2021/06/05 08:21:14;;;;;;;3.87;2.05;;;;;;;32.56;33.61;100752.17;1822727;77;22174;-64
2021/06/05 08:24:10;;;;;;;6.90;2.50;;;;;;;33.02;31.90;100748.06;1812611;77;22288;-65
2021/06/05 08:26:45;;;;;;;4.47;2.00;;;;;;;33.26;30.82;100740.23;1834500;77;22567;-65
2021/06/05 08:29:18;;;;;;;4.53;1.90;;;;;;;33.39;27.57;100739.84;1826564;77;22174;-66
2021/06/05 08:31:51;;;;;;;3.83;1.80;;;;;;;33.45;28.02;100744.66;1841868;77;22179;-66
2021/06/05 08:34:26;;;;;;;4.55;2.05;;;;;;;33.49;27.79;100741.44;1817443;77;22186;-64
2021/06/05 08:37:03;;;;;;;8.95;1.87;;;;;;;33.60;27.28;100739.45;1821080;77;22588;-54
2021/06/05 08:39:36;;;;;;;7.37;2.30;;;;;;;33.65;27.32;100739.31;1768796;77;38862;-53
2021/06/05 08:42:14;;;;;;;4.53;1.90;;;;;;;33.75;27.25;100741.07;1818395;77;22162;-53
2021/06/05 08:44:50;;;;;;;4.40;1.90;;;;;;;33.70;27.20;100737.48;1819384;77;22708;-54
2021/06/05 08:47:33;;;;;;;4.83;2.22;;;;;;;33.67;26.53;100743.25;1831884;77;22752;-54
2021/06/05 08:50:10;;;;;;;6.45;2.10;;;;;;;33.66;26.40;100732.83;1837120;77;22170;-54
2021/06/05 08:53:21;;;;;;;5.90;1.80;;;;;;;33.61;25.81;100733.83;1786173;80;21146;-54
2021/06/05 08:55:58;;;;;;;3.15;1.70;;;;;;;33.84;25.30;100716.02;1834508;77;22533;-54
2021/06/05 08:58:45;;;;;;;6.37;1.70;;;;;;;34.14;25.79;100719.27;1805549;77;22239;-54
2021/06/05 09:01:28;;;;;;;5.72;1.70;;;;;;;34.36;26.15;100718.63;1821049;77;22130;-54
2021/06/05 09:04:09;;;;;;;5.55;1.87;;;;;;;34.45;25.80;100713.22;1803843;77;22634;-54
2021/06/05 09:07:01;;;;;;;10.53;1.80;;;;;;;34.68;25.73;100712.06;1818895;77;22631;-54
2021/06/05 09:09:38;;;;;;;4.35;1.72;;;;;;;34.77;25.03;100711.05;1803269;77;22175;-54
2021/06/05 09:12:13;;;;;;;4.37;1.60;;;;;;;34.91;24.79;100707.27;1815585;77;22217;-54
2021/06/05 09:14:47;;;;;;;3.50;1.62;;;;;;;35.05;24.72;100703.05;1808578;77;22175;-55
2021/06/05 09:17:24;;;;;;;2.83;1.70;;;;;;;34.97;24.04;100710.72;1810880;77;22206;-54
2021/06/05 09:20:38;;;;;;;2.92;1.90;;;;;;;34.75;24.10;100708.98;1784776;80;21139;-55
2021/06/05 09:23:29;;;;;;;4.10;2.00;;;;;;;34.63;24.50;100701.64;1813181;77;22202;-54
2021/06/05 09:26:28;;;;;;;4.35;1.70;;;;;;;34.56;24.41;100703.34;1823161;77;22208;-55
2021/06/05 09:29:16;;;;;;;6.92;2.20;;;;;;;34.58;23.62;100699.05;1806757;77;22234;-55
2021/06/05 09:32:09;;;;;;;7.37;2.02;;;;;;;34.59;23.92;100703.50;1834459;77;22188;-54
2021/06/05 09:34:50;;;;;;;8.50;1.98;;;;;;;34.74;23.05;100696.84;1823144;77;22617;-54
2021/06/05 09:37:37;;;;;;;4.75;1.98;;;;;;;34.67;24.29;100698.05;1815749;78;22191;-56
2021/06/05 09:40:26;;;;;;;8.18;1.60;;;;;;;34.75;24.34;100693.09;1833675;77;22240;-53
2021/06/05 09:43:18;;;;;;;6.40;1.70;;;;;;;35.28;24.01;100685.41;1829738;77;22577;-55
2021/06/05 09:46:21;;;;;;;6.87;2.02;;;;;;;35.88;23.46;100681.78;1827092;77;22191;-54
2021/06/05 09:49:18;;;;;;;4.15;1.90;;;;;;;36.05;23.11;100685.85;1813933;77;22626;-54
2021/06/05 09:52:08;;;;;;;3.42;2.22;;;;;;;35.87;23.02;100686.92;1845477;77;22547;-54
2021/06/05 09:54:45;;;;;;;5.28;1.80;;;;;;;35.41;23.23;100689.80;1819837;77;22200;-55
2021/06/05 09:57:40;;;;;;;4.62;1.92;;;;;;;34.90;23.22;100687.29;1852878;77;22179;-55
2021/06/05 10:00:28;;;;;;;2.92;1.67;;;;;;;34.42;22.71;100687.08;1831869;77;20218;-55
2021/06/05 10:03:33;;;;;;;5.83;1.75;;;;;;;34.04;23.48;100682.52;1815246;77;22710;-55
2021/06/05 10:06:38;;;;;;;5.20;2.08;;;;;;;33.98;23.62;100679.11;1828843;77;22147;-55
2021/06/05 10:09:34;;;;;;;4.15;1.30;;;;;;;34.43;23.31;100676.48;1808694;77;22634;-55
2021/06/05 10:12:16;;;;;;;4.97;1.80;;;;;;;34.83;22.19;100673.95;1809343;77;22601;-55
2021/06/05 10:14:57;;;;;;;11.97;1.90;;;;;;;35.04;22.80;100669.36;1902998;74;22136;-55
2021/06/05 10:18:03;;;;;;;3.98;1.50;;;;;;;34.79;19.08;100667.13;1832935;77;22160;-55
2021/06/05 10:20:54;;;;;;;3.65;1.72;;;;;;;34.53;20.80;100670.89;1787624;77;28529;-55
2021/06/05 10:23:31;;;;;;;7.78;1.60;;;;;;;34.21;21.29;100669.27;1820054;77;22234;-55
2021/06/05 10:26:35;;;;;;;2.70;1.30;;;;;;;33.73;22.42;100674.38;1761594;81;21154;-56
2021/06/05 10:29:19;;;;;;;3.77;1.60;;;;;;;33.16;22.50;100674.86;1808128;77;22218;-54
2021/06/05 10:31:54;;;;;;;12.47;2.50;;;;;;;32.70;23.34;100672.28;1834410;77;22232;-55
2021/06/05 10:34:39;;;;;;;3.22;1.57;;;;;;;32.19;23.91;100675.50;1806707;77;22210;-55
2021/06/05 10:37:16;;;;;;;3.85;1.70;;;;;;;31.79;24.80;100678.09;1828162;77;22147;-55
2021/06/05 10:39:49;;;;;;;3.80;1.70;;;;;;;31.67;24.61;100678.25;1929612;74;22167;-57
2021/06/05 10:42:39;;;;;;;6.97;1.92;;;;;;;31.75;25.22;100673.47;1851963;77;22199;-55
2021/06/05 10:45:39;;;;;;;4.60;1.67;;;;;;;32.00;24.65;100683.28;1761685;81;21676;-55
2021/06/05 10:48:27;;;;;;;2.92;1.47;;;;;;;32.47;24.07;100674.98;1810937;77;22178;-55
2021/06/05 10:51:08;;;;;;;2.02;1.30;;;;;;;32.70;22.31;100664.95;1833129;77;22187;-55
2021/06/05 10:53:59;;;;;;;3.55;1.50;;;;;;;32.68;23.13;100664.25;1816936;77;22582;-55
2021/06/05 10:56:52;;;;;;;4.12;1.45;;;;;;;32.62;22.67;100661.66;1812854;77;22195;-55
2021/06/05 10:59:56;;;;;;;3.37;1.82;;;;;;;32.60;22.84;100665.05;1807051;77;22222;-55
2021/06/05 11:02:52;;;;;;;3.52;1.40;;;;;;;32.52;21.96;100663.59;1833312;77;22170;-55
2021/06/05 11:05:39;;;;;;;2.98;1.47;;;;;;;32.47;22.59;100659.12;1817126;77;22163;-55
2021/06/05 11:08:20;;;;;;;5.70;1.57;;;;;;;32.48;22.62;100658.98;1823659;77;22199;-65
2021/06/05 11:11:08;;;;;;;2.75;1.50;;;;;;;32.54;22.89;100653.92;1835606;77;22158;-66
2021/06/05 11:13:47;;;;;;;3.60;1.77;;;;;;;32.85;22.56;100654.89;1812393;77;22227;-65
2021/06/05 11:16:21;;;;;;;4.90;1.40;;;;;;;32.90;22.08;100649.30;1834462;77;22152;-66
2021/06/05 11:19:34;;;;;;;3.22;1.35;;;;;;;32.91;22.37;100657.83;1770322;80;21139;-66
2021/06/05 11:25:13;;;;;;;3.08;1.47;;;;;;;32.64;22.05;100653.34;1820572;77;22179;-65
2021/06/05 11:27:52;;;;;;;4.53;1.90;;;;;;;32.41;23.33;100652.97;1847510;77;22198;-65
2021/06/05 11:30:31;;;;;;;3.87;1.80;;;;;;;32.13;23.01;100659.78;1827357;77;22570;-65
2021/06/05 11:33:09;;;;;;;4.45;1.87;;;;;;;31.82;23.34;100660.95;1804922;77;22264;-64
2021/06/05 11:35:57;;;;;;;4.03;2.20;;;;;;;31.52;23.89;100662.93;1834482;77;22196;-64
2021/06/05 11:38:35;;;;;;;3.70;1.62;;;;;;;31.24;24.67;100664.73;1838322;77;22728;-64
2021/06/05 11:41:11;;;;;;;3.12;1.60;;;;;;;31.03;25.62;100668.48;1817785;77;22217;-64
2021/06/05 11:44:33;;;;;;;4.85;2.50;;;;;;;30.76;26.70;100663.28;1798318;77;28467;-62
2021/06/05 11:47:21;;;;;;;4.60;2.27;;;;;;;30.34;26.72;100666.24;1852803;77;22203;-62
2021/06/05 11:50:19;;;;;;;5.33;1.90;;;;;;;30.14;27.62;100663.52;1830904;77;22148;-63
2021/06/05 11:53:36;;;;;;;3.85;2.10;;;;;;;30.02;28.31;100663.27;1844510;77;22197;-62
2021/06/05 11:56:55;;;;;;;4.35;2.20;;;;;;;30.04;27.95;100659.41;1842632;77;22223;-63
2021/06/05 11:59:45;;;;;;;6.00;2.52;;;;;;;30.10;28.09;100663.44;1776175;77;28600;-62
2021/06/05 12:02:35;;;;;;;4.50;2.40;;;;;;;30.17;27.80;100655.09;1834477;77;22192;-63
2021/06/05 12:05:20;;;;;;;6.17;2.25;;;;;;;30.23;25.86;100650.47;1834510;77;22196;-63
2021/06/05 12:07:54;;;;;;;3.83;2.20;;;;;;;30.23;26.12;100651.83;1825601;77;22230;-64
2021/06/05 12:10:37;;;;;;;4.28;1.90;;;;;;;30.28;25.58;100651.39;1834536;77;22155;-64
2021/06/05 12:16:20;;;;;;;6.55;1.92;;;;;;;30.42;25.92;100648.75;1852972;77;22191;-64
2021/06/05 12:18:53;;;;;;;6.95;1.90;;;;;;;30.58;25.63;100640.58;1805603;77;22238;-63
2021/06/05 12:21:34;;;;;;;4.22;1.67;;;;;;;30.84;25.39;100636.25;1834450;77;22184;-63
2021/06/05 12:24:23;;;;;;;4.03;1.55;;;;;;;31.01;24.96;100637.88;1829036;77;22205;-63
2021/06/05 12:27:01;;;;;;;4.35;1.65;;;;;;;31.16;24.50;100639.66;1817965;77;22171;-63
2021/06/05 12:29:48;;;;;;;5.17;1.52;;;;;;;31.27;24.48;100639.49;1731570;80;21163;-64